ARU297 SVMI-TNCA
Flight info
| Callsign | ARU297 |
|---|---|
| Flight time | 0h 49m |
| Altitude | 30000 |
| Route | MARES1 MARES A315 AVELO UA315 PJG/N0388F180 A574 ABA |
| Aircraft | A320/M-L/C |
Departure
| Time | 2026-05-05 21:17 |
|---|---|
| Airport | Maiquetía Simón Bolívar International Airport (SVMI) |
Arrival
| Time | 2026-05-05 22:06 |
|---|---|
| Airport | Queen Beatrix International Airport (TNCA) |
| Time | Latitude | Longitude | Altitude | Speed | Heading |
|---|---|---|---|---|---|
| 2026-05-05 21:01 | 10.59807 | -67.00914 | 239 ft | 0 kts | 178° |
| 2026-05-05 21:04 | 10.59808 | -67.00914 | 236 ft | 0 kts | 178° |
| 2026-05-05 21:08 | 10.59826 | -67.00914 | 240 ft | 4 kts | 178° |
| 2026-05-05 21:08 | 10.59853 | -67.00915 | 238 ft | 4 kts | 178° |
| 2026-05-05 21:09 | 10.59880 | -67.00914 | 235 ft | 4 kts | 195° |
| 2026-05-05 21:09 | 10.59903 | -67.00902 | 236 ft | 4 kts | 238° |
| 2026-05-05 21:09 | 10.59908 | -67.00888 | 236 ft | 1 kts | 268° |
| 2026-05-05 21:09 | 10.59908 | -67.00886 | 236 ft | 0 kts | 268° |
| 2026-05-05 21:12 | 10.59908 | -67.00893 | 236 ft | 3 kts | 268° |
| 2026-05-05 21:12 | 10.59907 | -67.00921 | 236 ft | 6 kts | 268° |
| 2026-05-05 21:12 | 10.59904 | -67.00989 | 237 ft | 11 kts | 268° |
| 2026-05-05 21:13 | 10.59902 | -67.01067 | 238 ft | 11 kts | 268° |
| 2026-05-05 21:13 | 10.59899 | -67.01149 | 240 ft | 12 kts | 268° |
| 2026-05-05 21:13 | 10.59900 | -67.01203 | 241 ft | 12 kts | 282° |
| 2026-05-05 21:13 | 10.59970 | -67.01236 | 241 ft | 10 kts | 353° |
| 2026-05-05 21:14 | 10.60045 | -67.01243 | 241 ft | 9 kts | 358° |
| 2026-05-05 21:14 | 10.60091 | -67.01244 | 241 ft | 7 kts | 358° |
| 2026-05-05 21:14 | 10.60126 | -67.01245 | 241 ft | 0 kts | 359° |
| 2026-05-05 21:14 | 10.60131 | -67.01246 | 241 ft | 2 kts | 359° |
| 2026-05-05 21:15 | 10.60164 | -67.01246 | 239 ft | 8 kts | 358° |
| 2026-05-05 21:15 | 10.60232 | -67.01249 | 238 ft | 11 kts | 357° |
| 2026-05-05 21:15 | 10.60312 | -67.01253 | 240 ft | 12 kts | 356° |
| 2026-05-05 21:15 | 10.60364 | -67.01257 | 241 ft | 3 kts | 357° |
| 2026-05-05 21:16 | 10.60382 | -67.01229 | 241 ft | 11 kts | 79° |
| 2026-05-05 21:16 | 10.60391 | -67.00903 | 234 ft | 81 kts | 88° |
| 2026-05-05 21:16 | 10.60417 | -67.00134 | 224 ft | 135 kts | 88° |
| 2026-05-05 21:16 | 10.60455 | -66.99037 | 331 ft | 165 kts | 90° |
| 2026-05-05 21:17 | 10.60605 | -66.97910 | 1036 ft | 160 kts | 70° |
| 2026-05-05 21:17 | 10.61192 | -66.96897 | 1427 ft | 179 kts | 46° |
| 2026-05-05 21:17 | 10.62321 | -66.96193 | 1673 ft | 206 kts | 18° |
| 2026-05-05 21:17 | 10.63805 | -66.96226 | 1924 ft | 234 kts | 343° |
| 2026-05-05 21:18 | 10.65169 | -66.97287 | 2160 ft | 267 kts | 305° |
| 2026-05-05 21:18 | 10.65880 | -66.99084 | 2784 ft | 279 kts | 284° |
| 2026-05-05 21:18 | 10.66286 | -67.01023 | 3647 ft | 281 kts | 279° |
| 2026-05-05 21:18 | 10.66588 | -67.02990 | 4511 ft | 283 kts | 277° |
| 2026-05-05 21:19 | 10.66879 | -67.04981 | 5337 ft | 285 kts | 278° |
| 2026-05-05 21:19 | 10.67584 | -67.06878 | 6095 ft | 291 kts | 302° |
| 2026-05-05 21:19 | 10.68828 | -67.08533 | 6846 ft | 296 kts | 308° |
| 2026-05-05 21:19 | 10.70114 | -67.10163 | 7542 ft | 301 kts | 309° |
| 2026-05-05 21:20 | 10.71447 | -67.11846 | 8243 ft | 306 kts | 309° |
| 2026-05-05 21:20 | 10.72798 | -67.13551 | 8966 ft | 311 kts | 309° |
| 2026-05-05 21:20 | 10.74165 | -67.15277 | 9683 ft | 315 kts | 309° |
| 2026-05-05 21:20 | 10.75550 | -67.17028 | 10240 ft | 324 kts | 310° |
| 2026-05-05 21:21 | 10.77012 | -67.18877 | 10374 ft | 347 kts | 310° |
| 2026-05-05 21:21 | 10.78547 | -67.20819 | 10600 ft | 363 kts | 310° |
| 2026-05-05 21:21 | 10.80135 | -67.22852 | 11108 ft | 369 kts | 309° |
| 2026-05-05 21:21 | 10.81712 | -67.24942 | 11681 ft | 373 kts | 308° |
| 2026-05-05 21:22 | 10.83282 | -67.27073 | 12264 ft | 377 kts | 308° |
| 2026-05-05 21:22 | 10.84851 | -67.29221 | 12853 ft | 380 kts | 308° |
| 2026-05-05 21:22 | 10.86433 | -67.31383 | 13434 ft | 383 kts | 308° |
| 2026-05-05 21:22 | 10.88035 | -67.33556 | 13976 ft | 385 kts | 308° |
| 2026-05-05 21:23 | 10.89638 | -67.35721 | 14488 ft | 387 kts | 309° |
| 2026-05-05 21:23 | 10.91268 | -67.37916 | 15019 ft | 389 kts | 309° |
| 2026-05-05 21:23 | 10.92909 | -67.40121 | 15556 ft | 391 kts | 309° |
| 2026-05-05 21:23 | 10.94560 | -67.42337 | 16097 ft | 393 kts | 309° |
| 2026-05-05 21:24 | 10.96216 | -67.44562 | 16641 ft | 394 kts | 309° |
| 2026-05-05 21:24 | 10.97862 | -67.46781 | 17179 ft | 396 kts | 309° |
| 2026-05-05 21:24 | 10.99530 | -67.49021 | 17732 ft | 398 kts | 310° |
| 2026-05-05 21:24 | 11.01258 | -67.51233 | 18272 ft | 399 kts | 311° |
| 2026-05-05 21:25 | 11.03036 | -67.53415 | 18752 ft | 401 kts | 312° |
| 2026-05-05 21:25 | 11.04843 | -67.55593 | 19254 ft | 402 kts | 313° |
| 2026-05-05 21:25 | 11.06657 | -67.57774 | 19769 ft | 403 kts | 313° |
| 2026-05-05 21:25 | 11.08468 | -67.59964 | 20294 ft | 404 kts | 312° |
| 2026-05-05 21:26 | 11.10248 | -67.62134 | 20823 ft | 405 kts | 312° |
| 2026-05-05 21:26 | 11.12050 | -67.64345 | 21361 ft | 406 kts | 312° |
| 2026-05-05 21:26 | 11.13859 | -67.66571 | 21876 ft | 407 kts | 312° |
| 2026-05-05 21:26 | 11.15668 | -67.68799 | 22384 ft | 408 kts | 311° |
| 2026-05-05 21:27 | 11.17482 | -67.71035 | 22879 ft | 409 kts | 311° |
| 2026-05-05 21:27 | 11.19300 | -67.73279 | 23351 ft | 410 kts | 311° |
| 2026-05-05 21:27 | 11.21124 | -67.75529 | 23757 ft | 412 kts | 311° |
| 2026-05-05 21:27 | 11.22930 | -67.77754 | 24098 ft | 414 kts | 311° |
| 2026-05-05 21:28 | 11.24767 | -67.80018 | 24451 ft | 415 kts | 311° |
| 2026-05-05 21:28 | 11.26617 | -67.82298 | 24779 ft | 417 kts | 311° |
| 2026-05-05 21:28 | 11.28471 | -67.84584 | 25110 ft | 419 kts | 311° |
| 2026-05-05 21:28 | 11.30339 | -67.86884 | 25427 ft | 421 kts | 311° |
| 2026-05-05 21:29 | 11.32213 | -67.89191 | 25741 ft | 423 kts | 311° |
| 2026-05-05 21:29 | 11.34100 | -67.91512 | 26055 ft | 425 kts | 311° |
| 2026-05-05 21:29 | 11.35988 | -67.93841 | 26364 ft | 427 kts | 311° |
| 2026-05-05 21:29 | 11.37882 | -67.96180 | 26665 ft | 428 kts | 311° |
| 2026-05-05 21:30 | 11.39782 | -67.98527 | 26949 ft | 430 kts | 311° |
| 2026-05-05 21:30 | 11.41672 | -68.00863 | 27228 ft | 432 kts | 311° |
| 2026-05-05 21:30 | 11.43578 | -68.03242 | 27511 ft | 434 kts | 310° |
| 2026-05-05 21:30 | 11.45475 | -68.05653 | 27791 ft | 436 kts | 310° |
| 2026-05-05 21:31 | 11.47365 | -68.08086 | 28064 ft | 438 kts | 309° |
| 2026-05-05 21:31 | 11.49260 | -68.10539 | 28344 ft | 440 kts | 309° |
| 2026-05-05 21:31 | 11.51140 | -68.12971 | 28616 ft | 442 kts | 309° |
| 2026-05-05 21:31 | 11.53051 | -68.15436 | 28903 ft | 443 kts | 309° |
| 2026-05-05 21:32 | 11.54974 | -68.17907 | 29179 ft | 445 kts | 309° |
| 2026-05-05 21:32 | 11.56912 | -68.20387 | 29455 ft | 447 kts | 309° |
| 2026-05-05 21:32 | 11.58859 | -68.22876 | 29721 ft | 449 kts | 309° |
| 2026-05-05 21:32 | 11.60813 | -68.25374 | 29911 ft | 451 kts | 309° |
| 2026-05-05 21:33 | 11.64662 | -68.30299 | 29945 ft | 443 kts | 309° |
| 2026-05-05 21:33 | 11.68491 | -68.35217 | 29950 ft | 442 kts | 309° |
| 2026-05-05 21:34 | 11.72329 | -68.40149 | 29946 ft | 443 kts | 309° |
| 2026-05-05 21:34 | 11.76163 | -68.45074 | 29948 ft | 443 kts | 309° |
| 2026-05-05 21:35 | 11.79978 | -68.49974 | 29942 ft | 443 kts | 309° |
| 2026-05-05 21:35 | 11.83811 | -68.54900 | 29941 ft | 443 kts | 309° |
| 2026-05-05 21:36 | 11.87649 | -68.59838 | 29940 ft | 443 kts | 309° |
| 2026-05-05 21:36 | 11.91478 | -68.64773 | 29943 ft | 444 kts | 308° |
| 2026-05-05 21:37 | 11.95313 | -68.69713 | 29941 ft | 444 kts | 309° |
| 2026-05-05 21:37 | 11.99157 | -68.74659 | 29943 ft | 444 kts | 309° |
| 2026-05-05 21:38 | 12.02972 | -68.79579 | 29946 ft | 444 kts | 309° |
| 2026-05-05 21:38 | 12.06814 | -68.84535 | 29947 ft | 444 kts | 308° |
| 2026-05-05 21:39 | 12.10652 | -68.89487 | 29949 ft | 444 kts | 309° |
| 2026-05-05 21:39 | 12.14530 | -68.94491 | 29949 ft | 452 kts | 308° |
| 2026-05-05 21:40 | 12.18385 | -68.99516 | 29000 ft | 453 kts | 306° |
| 2026-05-05 21:40 | 12.20004 | -69.02349 | 27493 ft | 468 kts | 295° |
| 2026-05-05 21:40 | 12.21115 | -69.05486 | 26720 ft | 466 kts | 289° |
| 2026-05-05 21:41 | 12.22130 | -69.08623 | 26032 ft | 461 kts | 290° |
| 2026-05-05 21:41 | 12.23159 | -69.11712 | 25351 ft | 455 kts | 290° |
| 2026-05-05 21:41 | 12.24178 | -69.14725 | 24698 ft | 451 kts | 291° |
| 2026-05-05 21:41 | 12.25204 | -69.17746 | 24055 ft | 446 kts | 291° |
| 2026-05-05 21:42 | 12.26211 | -69.20729 | 23422 ft | 442 kts | 291° |
| 2026-05-05 21:42 | 12.27207 | -69.23696 | 22652 ft | 439 kts | 291° |
| 2026-05-05 21:42 | 12.28191 | -69.26649 | 21859 ft | 437 kts | 290° |
| 2026-05-05 21:42 | 12.29167 | -69.29588 | 21088 ft | 436 kts | 290° |
| 2026-05-05 21:43 | 12.30138 | -69.32520 | 20521 ft | 431 kts | 290° |
| 2026-05-05 21:43 | 12.31096 | -69.35421 | 20052 ft | 426 kts | 290° |
| 2026-05-05 21:43 | 12.32036 | -69.38255 | 19446 ft | 426 kts | 290° |
| 2026-05-05 21:43 | 12.33003 | -69.41128 | 18860 ft | 426 kts | 290° |
| 2026-05-05 21:44 | 12.33975 | -69.43993 | 18297 ft | 426 kts | 290° |
| 2026-05-05 21:44 | 12.34953 | -69.46864 | 17673 ft | 426 kts | 290° |
| 2026-05-05 21:44 | 12.35925 | -69.49732 | 17051 ft | 425 kts | 290° |
| 2026-05-05 21:44 | 12.36885 | -69.52578 | 16418 ft | 418 kts | 290° |
| 2026-05-05 21:45 | 12.37818 | -69.55334 | 15815 ft | 402 kts | 290° |
| 2026-05-05 21:45 | 12.38716 | -69.57993 | 15202 ft | 388 kts | 289° |
| 2026-05-05 21:45 | 12.39578 | -69.60574 | 14581 ft | 378 kts | 289° |
| 2026-05-05 21:45 | 12.40409 | -69.63097 | 14000 ft | 368 kts | 289° |
| 2026-05-05 21:46 | 12.41195 | -69.65509 | 13524 ft | 356 kts | 289° |
| 2026-05-05 21:46 | 12.41974 | -69.67906 | 13035 ft | 356 kts | 289° |
| 2026-05-05 21:46 | 12.42860 | -69.70270 | 12532 ft | 356 kts | 294° |
| 2026-05-05 21:46 | 12.43874 | -69.72583 | 12101 ft | 355 kts | 295° |
| 2026-05-05 21:47 | 12.44892 | -69.74874 | 11713 ft | 353 kts | 295° |
| 2026-05-05 21:47 | 12.45908 | -69.77154 | 11339 ft | 350 kts | 295° |
| 2026-05-05 21:47 | 12.46920 | -69.79413 | 10940 ft | 348 kts | 295° |
| 2026-05-05 21:47 | 12.47933 | -69.81662 | 10547 ft | 347 kts | 295° |
| 2026-05-05 21:48 | 12.48949 | -69.83907 | 10155 ft | 346 kts | 295° |
| 2026-05-05 21:48 | 12.49957 | -69.86137 | 9760 ft | 344 kts | 295° |
| 2026-05-05 21:48 | 12.50963 | -69.88352 | 9339 ft | 343 kts | 295° |
| 2026-05-05 21:48 | 12.51969 | -69.90558 | 8920 ft | 341 kts | 295° |
| 2026-05-05 21:49 | 12.52976 | -69.92754 | 8506 ft | 340 kts | 295° |
| 2026-05-05 21:49 | 12.53979 | -69.94939 | 8094 ft | 339 kts | 295° |
| 2026-05-05 21:49 | 12.54980 | -69.97124 | 7686 ft | 338 kts | 295° |
| 2026-05-05 21:49 | 12.55980 | -69.99308 | 7286 ft | 338 kts | 295° |
| 2026-05-05 21:50 | 12.56983 | -70.01493 | 6877 ft | 338 kts | 295° |
| 2026-05-05 21:50 | 12.57981 | -70.03663 | 6490 ft | 337 kts | 295° |
| 2026-05-05 21:50 | 12.58643 | -70.05100 | 6218 ft | 336 kts | 295° |
| 2026-05-05 21:50 | 12.59635 | -70.07260 | 5809 ft | 335 kts | 294° |
| 2026-05-05 21:51 | 12.60361 | -70.09518 | 5396 ft | 333 kts | 283° |
| 2026-05-05 21:51 | 12.60881 | -70.11825 | 4986 ft | 332 kts | 279° |
| 2026-05-05 21:51 | 12.61254 | -70.14153 | 4579 ft | 330 kts | 277° |
| 2026-05-05 21:51 | 12.61594 | -70.16476 | 4163 ft | 329 kts | 277° |
| 2026-05-05 21:52 | 12.62259 | -70.21104 | 3347 ft | 328 kts | 277° |
| 2026-05-05 21:52 | 12.62514 | -70.23384 | 2925 ft | 315 kts | 268° |
| 2026-05-05 21:52 | 12.62101 | -70.25486 | 2545 ft | 296 kts | 241° |
| 2026-05-05 21:53 | 12.60934 | -70.27063 | 2511 ft | 262 kts | 212° |
| 2026-05-05 21:53 | 12.59389 | -70.27812 | 2518 ft | 235 kts | 187° |
| 2026-05-05 21:53 | 12.57857 | -70.27916 | 2510 ft | 208 kts | 164° |
| 2026-05-05 21:53 | 12.56580 | -70.27468 | 2548 ft | 183 kts | 144° |
| 2026-05-05 21:54 | 12.55653 | -70.26648 | 2532 ft | 172 kts | 125° |
| 2026-05-05 21:54 | 12.55087 | -70.25600 | 2522 ft | 168 kts | 108° |
| 2026-05-05 21:54 | 12.54891 | -70.24428 | 2524 ft | 168 kts | 91° |
| 2026-05-05 21:54 | 12.54941 | -70.23248 | 2525 ft | 167 kts | 89° |
| 2026-05-05 21:55 | 12.54953 | -70.22055 | 2522 ft | 168 kts | 95° |
| 2026-05-05 21:55 | 12.54752 | -70.20874 | 2527 ft | 168 kts | 103° |
| 2026-05-05 21:55 | 12.54470 | -70.19709 | 2528 ft | 167 kts | 104° |
| 2026-05-05 21:55 | 12.54196 | -70.18571 | 2526 ft | 167 kts | 103° |
| 2026-05-05 21:56 | 12.53921 | -70.17418 | 2528 ft | 166 kts | 103° |
| 2026-05-05 21:56 | 12.53648 | -70.16269 | 2489 ft | 167 kts | 103° |
| 2026-05-05 21:56 | 12.53378 | -70.15135 | 2344 ft | 161 kts | 102° |
| 2026-05-05 21:56 | 12.53120 | -70.14050 | 2161 ft | 152 kts | 102° |
| 2026-05-05 21:57 | 12.52881 | -70.13048 | 1979 ft | 136 kts | 102° |
| 2026-05-05 21:57 | 12.52667 | -70.12150 | 1835 ft | 125 kts | 101° |
| 2026-05-05 21:57 | 12.52464 | -70.11296 | 1680 ft | 122 kts | 102° |
| 2026-05-05 21:57 | 12.52267 | -70.10468 | 1522 ft | 121 kts | 101° |
| 2026-05-05 21:58 | 12.52066 | -70.09622 | 1367 ft | 121 kts | 101° |
| 2026-05-05 21:58 | 12.51870 | -70.08797 | 1212 ft | 121 kts | 101° |
| 2026-05-05 21:58 | 12.51669 | -70.07952 | 1049 ft | 122 kts | 100° |
| 2026-05-05 21:58 | 12.51467 | -70.07104 | 903 ft | 121 kts | 98° |
| 2026-05-05 21:59 | 12.51268 | -70.06271 | 747 ft | 120 kts | 97° |
| 2026-05-05 21:59 | 12.51069 | -70.05435 | 589 ft | 121 kts | 102° |
| 2026-05-05 21:59 | 12.50869 | -70.04593 | 426 ft | 123 kts | 101° |
| 2026-05-05 21:59 | 12.50667 | -70.03742 | 271 ft | 124 kts | 102° |
| 2026-05-05 22:00 | 12.50461 | -70.02879 | 104 ft | 124 kts | 101° |
| 2026-05-05 22:00 | 12.50269 | -70.02074 | 46 ft | 111 kts | 98° |
| 2026-05-05 22:00 | 12.50072 | -70.01228 | 401 ft | 138 kts | 102° |
| 2026-05-05 22:00 | 12.50042 | -70.00141 | 670 ft | 169 kts | 70° |
| 2026-05-05 22:01 | 12.50868 | -69.99269 | 1180 ft | 185 kts | 25° |
| 2026-05-05 22:01 | 12.52235 | -69.99388 | 1486 ft | 222 kts | 337° |
| 2026-05-05 22:01 | 12.53306 | -70.00674 | 1408 ft | 262 kts | 294° |
| 2026-05-05 22:01 | 12.53849 | -70.02480 | 1354 ft | 269 kts | 287° |
| 2026-05-05 22:02 | 12.54298 | -70.04303 | 1314 ft | 257 kts | 283° |
| 2026-05-05 22:02 | 12.54694 | -70.06025 | 1368 ft | 239 kts | 284° |
| 2026-05-05 22:02 | 12.55044 | -70.07594 | 1718 ft | 218 kts | 283° |
| 2026-05-05 22:02 | 12.55240 | -70.09135 | 1938 ft | 215 kts | 263° |
| 2026-05-05 22:03 | 12.54717 | -70.10386 | 2212 ft | 177 kts | 211° |
| 2026-05-05 22:03 | 12.53675 | -70.10669 | 2075 ft | 151 kts | 155° |
| 2026-05-05 22:03 | 12.52846 | -70.10137 | 1640 ft | 136 kts | 129° |
| 2026-05-05 22:03 | 12.52223 | -70.09456 | 1359 ft | 126 kts | 122° |
| 2026-05-05 22:04 | 12.51777 | -70.08713 | 1158 ft | 120 kts | 106° |
| 2026-05-05 22:04 | 12.51566 | -70.07897 | 1017 ft | 117 kts | 96° |
| 2026-05-05 22:04 | 12.51413 | -70.07056 | 904 ft | 120 kts | 99° |
| 2026-05-05 22:04 | 12.51205 | -70.06243 | 750 ft | 120 kts | 97° |
| 2026-05-05 22:05 | 12.51053 | -70.05406 | 644 ft | 118 kts | 98° |
| 2026-05-05 22:05 | 12.50874 | -70.04591 | 506 ft | 119 kts | 102° |
| 2026-05-05 22:05 | 12.50675 | -70.03761 | 310 ft | 120 kts | 102° |
| 2026-05-05 22:05 | 12.50478 | -70.02934 | 116 ft | 120 kts | 101° |
| 2026-05-05 22:06 | 12.50279 | -70.02126 | 42 ft | 105 kts | 103° |
| 2026-05-05 22:06 | 12.50158 | -70.01598 | 46 ft | 55 kts | 104° |
| 2026-05-05 22:06 | 12.50080 | -70.01291 | 48 ft | 38 kts | 105° |
| 2026-05-05 22:06 | 12.50030 | -70.01069 | 50 ft | 17 kts | 102° |
| 2026-05-05 22:07 | 12.50086 | -70.01005 | 49 ft | 15 kts | 15° |
| 2026-05-05 22:07 | 12.50196 | -70.00974 | 47 ft | 18 kts | 16° |
| 2026-05-05 22:07 | 12.50227 | -70.00901 | 47 ft | 11 kts | 108° |
| 2026-05-05 22:07 | 12.50203 | -70.00819 | 47 ft | 13 kts | 106° |
| 2026-05-05 22:08 | 12.50187 | -70.00751 | 47 ft | 7 kts | 103° |
| 2026-05-05 22:08 | 12.50191 | -70.00721 | 47 ft | 5 kts | 52° |
| 2026-05-05 22:08 | 12.50229 | -70.00710 | 46 ft | 5 kts | 13° |
| 2026-05-05 22:08 | 12.50241 | -70.00707 | 46 ft | 2 kts | 13° |
| 2026-05-05 22:09 | 12.50253 | -70.00704 | 46 ft | 1 kts | 14° |
| 2026-05-05 22:09 | 12.50258 | -70.00703 | 46 ft | 0 kts | 14° |
| 2026-05-05 22:09 | 12.50260 | -70.00702 | 46 ft | 1 kts | 13° |
| 2026-05-05 22:09 | 12.50262 | -70.00702 | 46 ft | 0 kts | 13° |